createdAt,value
2018-02-06T00:01:59.468Z,17.00
2018-02-06T00:04:27.840Z,16.80
2018-02-06T00:06:56.248Z,17.83
2018-02-06T00:09:24.634Z,18.60
2018-02-06T00:11:53.005Z,16.67
2018-02-06T00:14:21.417Z,17.37
2018-02-06T00:16:49.789Z,18.30
2018-02-06T00:19:18.933Z,18.37
2018-02-06T00:21:48.085Z,17.77
2018-02-06T00:24:17.242Z,18.95
2018-02-06T00:26:48.742Z,16.73
2018-02-06T00:29:18.449Z,18.58
2018-02-06T00:31:49.767Z,17.67
2018-02-06T00:34:19.746Z,17.37
2018-02-06T00:36:51.006Z,17.95
2018-02-06T00:39:20.574Z,19.58
2018-02-06T00:41:49.950Z,17.70
2018-02-06T00:44:19.001Z,17.17
2018-02-06T00:46:48.184Z,18.23
2018-02-06T00:49:17.621Z,18.95
2018-02-06T00:51:46.013Z,17.90
2018-02-06T00:54:14.380Z,18.17
2018-02-06T00:56:42.801Z,20.17
2018-02-06T00:59:11.169Z,21.00
2018-02-06T01:01:39.540Z,19.85
2018-02-06T01:04:07.945Z,19.15
2018-02-06T01:06:37.082Z,20.70
2018-02-06T01:09:05.465Z,20.90
2018-02-06T01:11:33.865Z,19.90
2018-02-06T01:14:02.241Z,20.05
2018-02-06T01:16:30.706Z,18.20
2018-02-06T01:18:59.130Z,20.23
2018-02-06T01:21:28.271Z,21.15
2018-02-06T01:23:56.642Z,20.60
2018-02-06T01:26:26.971Z,18.65
2018-02-06T01:28:57.013Z,18.98
2018-02-06T01:31:26.233Z,21.30
2018-02-06T01:33:56.194Z,20.67
2018-02-06T01:36:25.536Z,22.30
2018-02-06T01:38:56.016Z,22.48
2018-02-06T01:41:25.110Z,20.98
2018-02-06T01:43:55.421Z,21.73
2018-02-06T01:46:26.189Z,19.98
2018-02-06T01:48:54.773Z,19.58
2018-02-06T01:51:25.039Z,20.92
2018-02-06T01:53:56.766Z,22.15
2018-02-06T01:56:25.989Z,19.98
2018-02-06T01:58:55.150Z,23.00
2018-02-06T02:01:23.561Z,24.23
2018-02-06T02:03:52.432Z,19.45
2018-02-06T02:06:20.815Z,20.52
2018-02-06T02:08:49.222Z,21.37
2018-02-06T02:11:17.593Z,21.00
2018-02-06T02:13:45.966Z,20.40
2018-02-06T02:16:14.373Z,21.95
2018-02-06T02:18:43.169Z,20.35
2018-02-06T02:21:14.296Z,21.12
2018-02-06T02:23:43.407Z,19.87
2018-02-06T02:26:12.281Z,20.80
2018-02-06T02:28:42.386Z,19.73
2018-02-06T02:31:11.170Z,21.87
2018-02-06T02:33:41.249Z,21.65
2018-02-06T02:36:11.111Z,20.92
2018-02-06T02:38:40.635Z,20.75
2018-02-06T02:41:10.298Z,20.23
2018-02-06T04:40:43.814Z,23.00
2018-02-06T04:43:12.186Z,21.67
2018-02-06T04:45:41.370Z,21.55
2018-02-06T04:48:12.831Z,23.25
2018-02-06T04:50:42.020Z,21.95
2018-02-06T04:53:11.466Z,25.85
2018-02-06T04:55:39.826Z,24.05
2018-02-06T04:58:08.193Z,22.67
2018-02-06T05:00:36.585Z,24.00
2018-02-06T05:03:04.950Z,25.92
2018-02-06T05:05:33.328Z,26.30
2018-02-06T05:08:03.339Z,26.77
2018-02-06T05:10:32.575Z,26.37
2018-02-06T05:13:00.944Z,25.17
2018-02-06T05:15:32.582Z,25.70
2018-02-06T05:18:00.957Z,27.48
2018-02-06T05:20:29.325Z,26.23
2018-02-06T05:22:58.492Z,28.50
2018-02-06T05:25:26.861Z,26.75
2018-02-06T05:27:55.241Z,23.80
2018-02-06T05:30:23.862Z,27.20
2018-02-06T05:32:53.008Z,27.02
2018-02-06T05:35:21.373Z,27.40
2018-02-06T05:37:49.786Z,27.20
2018-02-06T05:40:18.158Z,25.65
2018-02-06T05:42:46.619Z,25.92
2018-02-06T05:45:15.023Z,28.85
2018-02-06T05:47:43.402Z,26.48
2018-02-06T05:50:11.788Z,26.30
2018-02-06T05:52:40.185Z,27.77
2018-02-06T05:55:09.318Z,29.33
2018-02-06T05:57:37.686Z,25.80
2018-02-06T06:00:06.098Z,24.67
2018-02-06T06:02:34.468Z,26.52
2018-02-06T06:05:02.844Z,25.88
2018-02-06T06:07:31.247Z,27.80
2018-02-06T06:09:59.631Z,26.10
2018-02-06T06:12:29.505Z,28.90
2018-02-06T06:14:57.906Z,27.98
2018-02-06T06:17:27.338Z,29.48
2018-02-06T06:19:55.713Z,29.00
2018-02-06T06:22:24.129Z,29.83
2018-02-06T06:24:52.511Z,29.63
2018-02-06T06:27:20.886Z,29.50
2018-02-06T06:29:49.301Z,30.33
2018-02-06T06:32:17.674Z,27.77
2018-02-06T06:34:46.042Z,29.95
2018-02-06T06:37:14.620Z,28.42
2018-02-06T06:39:43.003Z,29.17
2018-02-06T06:42:11.369Z,28.12
2018-02-06T06:44:39.784Z,28.35
2018-02-06T06:47:08.195Z,27.80
2018-02-06T06:49:37.333Z,28.00
2018-02-06T06:52:05.734Z,26.12
2018-02-06T06:54:34.105Z,29.02
2018-02-06T06:57:02.474Z,29.30
2018-02-06T06:59:30.873Z,26.85
2018-02-06T07:01:59.249Z,31.73
2018-02-06T07:04:27.616Z,30.90
2018-02-06T07:06:56.031Z,31.15
2018-02-06T07:09:24.405Z,29.63
2018-02-06T07:11:52.785Z,30.02
2018-02-06T07:14:21.193Z,29.75
2018-02-06T07:16:49.562Z,27.98
2018-02-06T07:19:18.701Z,27.30
2018-02-06T07:21:47.105Z,29.15
2018-02-06T07:24:15.478Z,27.83
2018-02-06T07:26:43.858Z,29.10
2018-02-06T07:29:12.270Z,28.20
2018-02-06T07:31:41.419Z,28.90
2018-02-06T07:34:09.793Z,26.50
2018-02-06T07:36:38.201Z,26.95
2018-02-06T07:39:06.575Z,26.20
2018-02-06T07:41:34.975Z,26.12
2018-02-06T07:44:04.148Z,26.98
2018-02-06T07:46:32.523Z,26.95
2018-02-06T07:49:00.896Z,28.30
2018-02-06T07:51:29.309Z,26.98
2018-02-06T07:53:58.453Z,29.35
2018-02-06T07:56:26.830Z,26.05
2018-02-06T07:58:55.241Z,27.25
2018-02-06T08:01:23.626Z,27.77
2018-02-06T08:03:52.021Z,29.73
2018-02-06T08:06:21.189Z,27.80
2018-02-06T08:08:49.569Z,26.90
2018-02-06T08:11:17.934Z,27.25
2018-02-06T08:13:46.336Z,28.90
2018-02-06T08:16:14.706Z,27.27
2018-02-06T08:18:43.068Z,26.00
2018-02-06T08:21:11.469Z,28.70
2018-02-06T08:23:39.835Z,29.80
2018-02-06T08:26:08.241Z,27.83
2018-02-06T08:28:36.642Z,26.17
2018-02-06T08:31:05.012Z,27.08
2018-02-06T08:33:34.137Z,29.87
2018-02-06T08:36:02.551Z,29.85
2018-02-06T08:38:30.922Z,28.45
2018-02-06T08:40:59.289Z,27.73
2018-02-06T08:43:27.683Z,27.25
2018-02-06T08:45:56.056Z,28.62
2018-02-06T08:48:24.429Z,29.08
2018-02-06T08:50:52.833Z,29.30
2018-02-06T08:53:21.237Z,28.75
2018-02-06T08:55:50.353Z,28.08
2018-02-06T08:58:18.760Z,29.90
2018-02-06T09:00:47.126Z,26.75
2018-02-06T09:03:15.494Z,26.58
2018-02-06T09:05:43.894Z,28.75
2018-02-06T09:08:12.258Z,27.27
2018-02-06T09:10:40.621Z,28.33
2018-02-06T09:13:09.013Z,28.48
2018-02-06T09:15:37.390Z,25.17
2018-02-06T09:18:05.765Z,28.38
2018-02-06T09:20:34.165Z,25.67
2018-02-06T09:23:02.530Z,26.10
2018-02-06T09:25:30.898Z,27.02
2018-02-06T09:27:59.355Z,26.20
2018-02-06T09:30:28.480Z,24.90
2018-02-06T09:32:56.842Z,25.37
2018-02-06T09:35:25.241Z,26.87
2018-02-06T09:37:53.605Z,26.02
2018-02-06T09:40:21.977Z,26.98
2018-02-06T09:42:50.393Z,25.27
2018-02-06T09:45:18.761Z,24.90
2018-02-06T09:47:47.125Z,23.17
2018-02-06T09:50:15.505Z,25.60
2018-02-06T09:52:43.873Z,25.00
2018-02-06T09:55:12.242Z,24.60
2018-02-06T09:57:40.636Z,23.75
2018-02-06T10:00:09.010Z,25.50
2018-02-06T10:02:37.377Z,27.30
2018-02-06T10:05:05.793Z,23.83
2018-02-06T10:07:34.161Z,23.90
2018-02-06T10:10:02.580Z,25.12
2018-02-06T10:12:30.953Z,23.80
2018-02-06T10:14:59.322Z,23.40
2018-02-06T10:17:27.713Z,24.20
2018-02-06T10:19:56.882Z,22.77
2018-02-06T10:22:25.253Z,24.00
2018-02-06T10:24:53.642Z,23.70
2018-02-06T10:27:22.314Z,22.27
2018-02-06T10:29:50.694Z,21.25
2018-02-06T10:32:19.074Z,23.35
2018-02-06T10:34:47.469Z,23.80
2018-02-06T10:37:15.842Z,22.70
2018-02-06T10:39:44.232Z,23.17
2018-02-06T10:42:12.633Z,23.52
2018-02-06T10:44:41.006Z,22.55
2018-02-06T10:47:10.163Z,22.40
2018-02-06T10:49:38.848Z,24.37
2018-02-06T10:52:07.216Z,26.33
2018-02-06T10:54:35.597Z,28.85
2018-02-06T10:57:03.993Z,26.05
2018-02-06T10:59:32.465Z,28.95
2018-02-06T11:02:00.842Z,27.48
2018-02-06T11:04:29.237Z,27.77
2018-02-06T11:06:57.613Z,27.23
2018-02-06T11:09:25.990Z,30.67
2018-02-06T11:11:54.415Z,30.77
2018-02-06T11:14:23.621Z,29.00
2018-02-06T11:16:51.993Z,29.87
2018-02-06T11:19:21.336Z,29.48
2018-02-06T11:21:49.721Z,29.85
2018-02-06T11:24:18.115Z,28.73
2018-02-06T11:26:46.537Z,30.33
2018-02-06T11:29:14.908Z,30.10
2018-02-06T11:31:44.045Z,29.67
2018-02-06T11:34:12.460Z,30.60
2018-02-06T11:36:40.841Z,31.20
2018-02-06T11:39:09.236Z,28.12
2018-02-06T11:41:38.577Z,27.02
2018-02-06T11:44:06.951Z,27.60
2018-02-06T11:46:35.326Z,25.83
2018-02-06T11:49:03.870Z,25.25
2018-02-06T11:51:33.090Z,23.98
2018-02-06T11:54:01.453Z,22.42
2018-02-06T11:56:30.661Z,24.77
2018-02-06T11:58:59.049Z,25.85
2018-02-06T12:01:27.421Z,28.87
2018-02-06T12:03:55.827Z,25.92
2018-02-06T12:06:24.244Z,24.37
2018-02-06T12:08:53.382Z,25.83
2018-02-06T12:11:21.781Z,24.33
2018-02-06T12:13:50.171Z,25.35
2018-02-06T12:16:18.538Z,24.70
2018-02-06T12:18:46.954Z,26.02
2018-02-06T12:21:15.328Z,23.87
2018-02-06T12:23:43.701Z,26.40
2018-02-06T12:26:12.122Z,23.23
2018-02-06T12:28:41.274Z,24.27
2018-02-06T12:31:09.661Z,24.08
2018-02-06T12:33:38.061Z,22.55
2018-02-06T12:36:07.213Z,22.67
2018-02-06T12:38:35.586Z,21.83
2018-02-06T12:41:04.008Z,23.73
2018-02-06T12:43:32.373Z,23.02
2018-02-06T12:46:00.762Z,21.45
2018-02-06T12:48:29.179Z,20.23
2018-02-06T12:50:57.589Z,20.62
2018-02-06T12:53:25.967Z,22.87
2018-02-06T12:55:54.380Z,20.98
2018-02-06T12:58:22.878Z,21.17
2018-02-06T13:00:52.051Z,21.35
2018-02-06T13:03:21.354Z,22.62
2018-02-06T13:05:49.747Z,19.85
2018-02-06T13:08:19.088Z,21.02
2018-02-06T13:10:47.726Z,22.13
2018-02-06T13:13:16.092Z,19.48
2018-02-06T13:15:44.465Z,19.87
2018-02-06T13:18:12.866Z,21.05
2018-02-06T13:20:42.000Z,20.30
2018-02-06T13:23:10.378Z,22.15
2018-02-06T13:25:38.846Z,23.27
2018-02-06T13:28:07.243Z,22.27
2018-02-06T13:30:35.661Z,20.10
2018-02-06T13:33:04.406Z,22.92
2018-02-06T13:35:32.773Z,21.02
2018-02-06T13:38:01.154Z,21.83
2018-02-06T13:40:29.642Z,22.50
2018-02-06T13:42:58.851Z,20.55
2018-02-06T13:45:27.244Z,21.35
2018-02-06T13:47:55.690Z,22.15
2018-02-06T13:50:24.214Z,21.52
2018-02-06T13:52:52.995Z,22.92
2018-02-06T13:55:21.521Z,20.50
2018-02-06T13:57:52.602Z,20.67
2018-02-06T14:00:21.463Z,21.25
2018-02-06T14:02:50.021Z,20.15
2018-02-06T14:05:19.171Z,20.45
2018-02-06T14:07:47.635Z,21.23
2018-02-06T14:10:16.068Z,20.15
2018-02-06T14:12:45.997Z,19.60
2018-02-06T14:15:15.275Z,21.12
2018-02-06T14:17:43.693Z,19.45
2018-02-06T14:20:12.124Z,21.45
2018-02-06T14:22:41.405Z,18.98
2018-02-06T14:25:09.929Z,17.25
2018-02-06T14:27:38.297Z,18.20
2018-02-06T14:30:06.670Z,19.80
2018-02-06T14:32:35.078Z,18.65
2018-02-06T14:35:04.223Z,20.17
2018-02-06T14:37:34.894Z,20.15
2018-02-06T14:40:03.360Z,19.00
2018-02-06T14:42:32.540Z,18.77
2018-02-06T14:45:00.914Z,18.90
2018-02-06T14:47:29.338Z,18.90
2018-02-06T14:49:58.493Z,19.37
2018-02-06T14:52:26.905Z,19.45
2018-02-06T14:54:56.295Z,18.02
2018-02-06T14:57:24.701Z,17.35
2018-02-06T14:59:53.834Z,17.50
2018-02-06T15:02:22.326Z,18.23
2018-02-06T15:04:50.798Z,18.42
2018-02-06T15:07:19.385Z,17.27
2018-02-06T15:09:48.698Z,18.73
2018-02-06T15:12:17.053Z,17.40
2018-02-06T15:14:45.422Z,18.65
2018-02-06T15:17:13.957Z,18.98
2018-02-06T15:19:42.309Z,18.25
2018-02-06T15:22:10.749Z,19.10
2018-02-06T15:24:39.339Z,18.87
2018-02-06T15:27:07.721Z,18.65
2018-02-06T15:29:36.202Z,18.70
2018-02-06T15:32:04.689Z,19.10
2018-02-06T15:34:33.797Z,19.73
2018-02-06T15:37:02.532Z,20.15
2018-02-06T15:39:31.744Z,19.20
2018-02-06T15:42:00.895Z,21.05
2018-02-06T15:44:29.859Z,19.95
2018-02-06T15:46:58.466Z,21.95
2018-02-06T15:49:26.835Z,21.05
2018-02-06T15:51:55.205Z,23.05
2018-02-06T15:54:23.608Z,21.23
2018-02-06T15:56:52.026Z,21.87
2018-02-06T15:59:21.180Z,23.10
2018-02-06T16:01:49.685Z,20.67
2018-02-06T16:04:18.048Z,21.42
2018-02-06T16:06:46.421Z,22.30
2018-02-06T16:09:14.812Z,21.27
2018-02-06T16:11:44.687Z,19.27
2018-02-06T16:14:13.076Z,22.10
2018-02-06T16:16:41.477Z,22.75
2018-02-06T16:19:10.136Z,22.15
2018-02-06T16:21:38.626Z,23.30
2018-02-06T16:24:07.303Z,22.65
2018-02-06T16:26:35.701Z,24.35
2018-02-06T16:29:04.070Z,22.87
2018-02-06T16:31:32.476Z,24.00
2018-02-06T16:34:00.892Z,21.45
2018-02-06T16:36:29.329Z,23.92
2018-02-06T16:38:58.018Z,24.52
2018-02-06T16:41:26.623Z,23.90
2018-02-06T16:43:55.761Z,26.02
2018-02-06T16:46:24.334Z,27.05
2018-02-06T16:48:52.777Z,28.08
2018-02-06T16:51:22.049Z,24.55
2018-02-06T16:53:50.558Z,27.50
2018-02-06T16:56:19.686Z,26.48
2018-02-06T16:58:49.017Z,24.08
2018-02-06T17:01:17.690Z,27.17
2018-02-06T17:03:46.082Z,24.37
2018-02-06T17:06:14.646Z,23.70
2018-02-06T17:08:43.067Z,26.15
2018-02-06T17:11:12.087Z,25.90
2018-02-06T17:13:40.559Z,24.55
2018-02-06T17:16:10.093Z,24.85
2018-02-06T17:18:39.128Z,27.55
2018-02-06T17:21:08.695Z,25.08
2018-02-06T17:23:37.600Z,27.02
2018-02-06T17:26:06.665Z,25.52
2018-02-06T17:28:35.533Z,26.00
2018-02-06T17:31:04.977Z,26.83
2018-02-06T17:33:33.750Z,23.58
2018-02-06T17:36:02.144Z,24.98
2018-02-06T17:38:30.554Z,26.58
2018-02-06T17:41:00.652Z,23.65
2018-02-06T17:43:30.200Z,23.25
2018-02-06T17:45:59.765Z,26.25
2018-02-06T17:48:30.061Z,26.75
2018-02-06T17:51:00.008Z,26.65
2018-02-06T17:53:29.343Z,24.17
2018-02-06T17:55:58.246Z,24.70
2018-02-06T17:58:27.698Z,23.52
2018-02-06T18:00:57.332Z,24.52
2018-02-06T18:03:26.131Z,25.65
2018-02-06T18:05:56.119Z,25.67
2018-02-06T18:08:25.512Z,25.60
2018-02-06T18:10:53.889Z,25.70
2018-02-06T18:13:22.421Z,25.23
2018-02-06T18:15:52.198Z,24.08
2018-02-06T18:18:20.700Z,26.08
2018-02-06T18:20:49.785Z,26.10
2018-02-06T18:23:19.105Z,26.12
2018-02-06T18:25:49.588Z,25.33
2018-02-06T18:28:18.072Z,26.60
2018-02-06T18:30:47.735Z,24.80
2018-02-06T18:33:16.126Z,25.48
2018-02-06T18:35:44.511Z,24.75
2018-02-06T18:38:13.062Z,25.75
2018-02-06T18:40:41.654Z,32.72
2018-02-06T18:43:10.847Z,27.92
2018-02-06T18:45:40.254Z,30.37
2018-02-06T18:48:09.650Z,26.45
2018-02-06T18:50:38.876Z,28.80
2018-02-06T18:53:07.363Z,27.65
2018-02-06T18:55:35.862Z,26.58
2018-02-06T18:58:04.445Z,27.90
2018-02-06T19:00:32.935Z,28.40
2018-02-06T19:03:01.360Z,27.42
2018-02-06T19:05:30.514Z,28.77
2018-02-06T19:07:58.984Z,28.20
2018-02-06T19:10:27.475Z,27.33
2018-02-06T19:12:55.886Z,24.58
2018-02-06T19:15:25.370Z,26.65
2018-02-06T19:17:53.935Z,27.65
2018-02-06T19:20:22.662Z,29.67
2018-02-06T19:22:52.546Z,27.65
2018-02-06T19:25:20.953Z,23.90
2018-02-06T19:27:49.492Z,26.60
2018-02-06T19:30:19.418Z,27.45
2018-02-06T19:32:48.149Z,28.17
2018-02-06T19:35:17.305Z,27.00
2018-02-06T19:37:46.760Z,24.92
2018-02-06T19:40:15.794Z,28.10
2018-02-06T19:42:45.450Z,25.45
2018-02-06T19:45:15.207Z,26.65
2018-02-06T19:47:44.042Z,25.27
2018-02-06T19:50:12.906Z,26.65
2018-02-06T19:52:42.697Z,25.52
2018-02-06T19:55:11.486Z,28.35
2018-02-06T19:57:41.118Z,26.25
2018-02-06T20:00:10.139Z,25.40
2018-02-06T20:02:39.036Z,26.08
2018-02-06T20:05:08.217Z,23.62
2018-02-06T20:07:38.881Z,26.35
2018-02-06T20:10:08.104Z,27.62
2018-02-06T20:12:37.274Z,24.70
2018-02-06T20:15:05.886Z,26.05
2018-02-06T20:17:34.922Z,26.50
2018-02-06T20:20:03.767Z,25.60
2018-02-06T20:22:32.619Z,24.92
2018-02-06T20:25:01.384Z,23.85
2018-02-06T20:27:30.080Z,26.55
2018-02-06T20:29:58.870Z,23.80
2018-02-06T20:32:28.806Z,26.83
2018-02-06T20:34:58.963Z,22.85
2018-02-06T20:37:28.850Z,27.65
2018-02-06T20:39:57.658Z,26.62
2018-02-06T20:42:27.726Z,23.98
2018-02-06T20:44:57.479Z,24.67
2018-02-06T20:47:25.900Z,25.65
2018-02-06T20:49:55.792Z,23.65
2018-02-06T20:52:25.055Z,25.90
2018-02-06T20:54:53.975Z,25.42
2018-02-06T20:57:23.625Z,24.33
2018-02-06T20:59:52.670Z,26.75
2018-02-06T21:02:22.568Z,25.33
2018-02-06T21:04:52.361Z,26.85
2018-02-06T21:07:21.374Z,26.40
2018-02-06T21:09:50.769Z,26.40
2018-02-06T21:12:20.042Z,24.42
2018-02-06T21:14:48.913Z,26.50
2018-02-06T21:17:18.531Z,25.12
2018-02-06T21:19:47.964Z,26.48
2018-02-06T21:22:18.418Z,24.85
2018-02-06T21:24:49.702Z,26.90
2018-02-06T21:27:19.044Z,25.35
2018-02-06T21:29:48.440Z,27.87
2018-02-06T21:32:17.477Z,26.77
2018-02-06T21:34:46.252Z,26.27
2018-02-06T21:37:15.244Z,27.40
2018-02-06T21:39:45.657Z,27.95
2018-02-06T21:42:14.831Z,27.60
2018-02-06T21:44:44.725Z,27.50
2018-02-06T21:47:14.119Z,25.02
2018-02-06T21:49:42.964Z,28.15
2018-02-06T21:52:12.051Z,26.37
2018-02-06T21:54:41.134Z,26.67
2018-02-06T21:57:11.235Z,28.48
2018-02-06T21:59:40.063Z,27.48
2018-02-06T22:02:08.871Z,27.33
2018-02-06T22:04:37.297Z,28.20
2018-02-06T22:07:06.590Z,27.52
2018-02-06T22:09:36.039Z,27.62
2018-02-06T22:12:04.478Z,26.95
2018-02-06T22:14:33.617Z,28.85
2018-02-06T22:17:02.506Z,31.02
2018-02-06T22:19:31.111Z,30.12
2018-02-06T22:22:00.361Z,29.25
2018-02-06T22:24:28.969Z,29.90
2018-02-06T22:26:57.380Z,30.05
2018-02-06T22:29:25.754Z,30.50
2018-02-06T22:31:54.126Z,27.35
2018-02-06T22:34:22.979Z,31.80
2018-02-06T22:36:51.515Z,29.77
2018-02-06T22:39:20.656Z,29.15
2018-02-06T22:41:49.136Z,27.10
2018-02-06T22:44:17.520Z,27.55
2018-02-06T22:46:45.889Z,30.12
2018-02-06T22:49:14.290Z,30.55
2018-02-06T22:51:42.669Z,31.42
2018-02-06T22:54:11.033Z,30.62
2018-02-06T22:56:39.425Z,29.50
2018-02-06T22:59:07.791Z,29.30
2018-02-06T23:01:36.182Z,29.75
2018-02-06T23:04:04.599Z,29.30
2018-02-06T23:06:32.981Z,28.70
2018-02-06T23:09:01.351Z,26.92
2018-02-06T23:11:29.757Z,29.67
2018-02-06T23:13:58.889Z,29.48
2018-02-06T23:16:27.261Z,29.55
2018-02-06T23:18:55.789Z,30.80
2018-02-06T23:21:24.180Z,28.73
2018-02-06T23:23:52.585Z,27.23
2018-02-06T23:26:21.004Z,30.08
2018-02-06T23:28:49.377Z,27.77
2018-02-06T23:31:17.746Z,24.55
2018-02-06T23:33:46.151Z,30.77
2018-02-06T23:36:14.535Z,29.02
2018-02-06T23:38:42.909Z,29.37
2018-02-06T23:41:11.321Z,27.98
2018-02-06T23:43:40.449Z,28.40
2018-02-06T23:46:08.830Z,30.90
2018-02-06T23:48:37.249Z,30.15
2018-02-06T23:51:05.623Z,31.75
2018-02-06T23:53:33.993Z,32.58
2018-02-06T23:56:02.402Z,33.90
2018-02-06T23:58:31.547Z,32.47
